Aviation Digital Data Service (ADDS)

Output produced by TAFs form (0747 UTC 20 February 2018)
found at http://www.aviationweather.gov/adds/tafs/
 
KDEN 200702Z 03010KT 7SM OVC090 M16/M18 A2974 RMK AO2 SNE0658 P0000 T11611183 $
KDEN 200614Z 2006/2112 04010KT 1 1/2SM -SN OVC020 
     FM200800 03008KT 3SM BR OVC015 
     FM201000 03007KT 3SM BR SCT004 OVC008 
     FM201500 11004KT P6SM SCT015 BKN025 
     FM201800 06007KT P6SM SCT030 OVC045 
     FM210100 13008KT P6SM SCT050 BKN100